Time;durP1;ratioP1;P1;durP2;ratioP2;P2;SDS_P1;SDS_P2;PMS_P1;PMS_P2;Temp;Humidity;BMP_temperature;BMP_pressure;BME280_temperature;BME280_humidity;BME280_pressure;Samples;Min_cycle;Max_cycle;Signal;HPM_P1;HPM_P2
2023/08/30 00:00:40;;;;;;;3.20;2.05;;;;;;;;;;4396875;32;69384;-61
2023/08/30 00:03:26;;;;;;;3.75;2.30;;;;;;;;;;4396403;32;68230;-60
2023/08/30 00:06:12;;;;;;;3.60;2.40;;;;;;;;;;4397970;32;71021;-60
2023/08/30 00:08:59;;;;;;;4.53;2.60;;;;;;;;;;4398211;32;64646;-59
2023/08/30 00:11:45;;;;;;;3.70;2.45;;;;;;;;;;4396823;32;67340;-61
2023/08/30 00:14:32;;;;;;;3.17;2.10;;;;;;;;;;4397931;32;60269;-61
2023/08/30 00:17:19;;;;;;;5.05;2.45;;;;;;;;;;4396892;32;70309;-61
2023/08/30 00:20:07;;;;;;;3.10;2.08;;;;;;;;;;4399806;32;68333;-61
2023/08/30 00:22:53;;;;;;;4.65;2.15;;;;;;;;;;4396675;32;68240;-61
2023/08/30 00:25:39;;;;;;;;;;;;;;;;;;4397332;32;59804;-60
2023/08/30 00:28:26;;;;;;;3.50;2.30;;;;;;;;;;4396808;32;69068;-60
2023/08/30 00:31:13;;;;;;;4.53;2.15;;;;;;;;;;4397684;32;69579;-60
2023/08/30 00:34:02;;;;;;;3.75;2.17;;;;;;;;;;4396499;32;67456;-60
2023/08/30 00:36:49;;;;;;;3.03;2.15;;;;;;;;;;4397624;32;71748;-60
2023/08/30 00:39:38;;;;;;;;;;;;;;;;;;4396877;32;66062;-60
2023/08/30 00:42:25;;;;;;;4.32;2.62;;;;;;;;;;4396870;32;67643;-59
2023/08/30 00:45:11;;;;;;;5.53;2.58;;;;;;;;;;4396870;32;60036;-60
2023/08/30 00:47:58;;;;;;;4.80;2.35;;;;;;;;;;4397552;32;71903;-60
2023/08/30 00:50:45;;;;;;;3.90;2.17;;;;;;;;;;4398047;32;66229;-61
2023/08/30 00:53:31;;;;;;;;;;;;;;;;;;4396242;32;67672;-59
2023/08/30 00:56:18;;;;;;;3.35;2.20;;;;;;;;;;4398022;32;59878;-60
2023/08/30 00:59:05;;;;;;;4.35;2.35;;;;;;;;;;4396432;32;69225;-60
2023/08/30 01:01:53;;;;;;;3.22;2.00;;;;;;;;;;4400282;32;69144;-60
2023/08/30 01:04:40;;;;;;;2.92;1.98;;;;;;;;;;4400122;32;67877;-60
2023/08/30 01:07:27;;;;;;;3.72;2.30;;;;;;;;;;4399151;32;71588;-60
2023/08/30 01:10:14;;;;;;;2.90;2.15;;;;;;;;;;4400128;32;70290;-60
2023/08/30 01:13:06;;;;;;;2.42;2.00;;;;;;;;;;4399705;32;69636;-60
2023/08/30 01:15:54;;;;;;;2.72;1.87;;;;;;;;;;4400213;32;67755;-61
2023/08/30 01:18:42;;;;;;;4.62;2.65;;;;;;;;;;4398953;32;70788;-61
2023/08/30 01:21:44;;;;;;;4.10;2.42;;;;;;;;;;4388370;32;64918;-60
2023/08/30 01:24:37;;;;;;;4.20;2.80;;;;;;;;;;4400214;32;67854;-60
2023/08/30 01:27:25;;;;;;;4.70;2.53;;;;;;;;;;4388571;32;59250;-61
2023/08/30 01:30:11;;;;;;;4.95;2.85;;;;;;;;;;4400864;32;70346;-61
2023/08/30 01:33:03;;;;;;;4.68;2.58;;;;;;;;;;4379080;32;69605;-60
2023/08/30 01:35:49;;;;;;;5.22;2.37;;;;;;;;;;4390164;32;68501;-60
2023/08/30 01:38:37;;;;;;;3.25;2.20;;;;;;;;;;4404116;32;59110;-61
2023/08/30 01:41:25;;;;;;;3.85;2.55;;;;;;;;;;4400302;32;69692;-61
2023/08/30 01:44:16;;;;;;;3.10;1.92;;;;;;;;;;4402837;32;68301;-60
2023/08/30 01:47:03;;;;;;;4.00;2.67;;;;;;;;;;4405601;32;67927;-60
2023/08/30 01:49:51;;;;;;;3.37;2.25;;;;;;;;;;4402705;32;71117;-60
2023/08/30 01:52:37;;;;;;;3.17;2.30;;;;;;;;;;4403815;32;65038;-60
2023/08/30 01:55:28;;;;;;;3.08;2.17;;;;;;;;;;4409075;32;67919;-68
2023/08/30 01:58:14;;;;;;;3.58;2.28;;;;;;;;;;4410726;32;60428;-60
2023/08/30 02:01:02;;;;;;;3.40;2.20;;;;;;;;;;4407399;32;71107;-61
2023/08/30 02:03:48;;;;;;;4.18;2.40;;;;;;;;;;4396277;32;66490;-60
2023/08/30 02:07:10;;;;;;;3.05;2.15;;;;;;;;;;4405033;32;67031;-61
2023/08/30 02:10:02;;;;;;;5.82;2.20;;;;;;;;;;4393687;32;59238;-61
2023/08/30 02:12:50;;;;;;;4.35;2.20;;;;;;;;;;4409315;32;70784;-60
2023/08/30 02:15:37;;;;;;;3.30;2.37;;;;;;;;;;4405618;32;69606;-60
2023/08/30 02:18:24;;;;;;;;;;;;;;;;;;4407880;32;66679;-60
2023/08/30 02:21:15;;;;;;;3.42;2.12;;;;;;;;;;4387591;32;72081;-60
2023/08/30 02:24:01;;;;;;;5.32;2.45;;;;;;;;;;4396521;32;66142;-60
2023/08/30 02:26:50;;;;;;;4.40;2.67;;;;;;;;;;4402859;32;69502;-59
2023/08/30 02:29:37;;;;;;;6.00;2.83;;;;;;;;;;4404876;32;67019;-60
2023/08/30 02:32:25;;;;;;;5.47;2.65;;;;;;;;;;4397761;32;71629;-60
2023/08/30 02:35:12;;;;;;;5.07;2.97;;;;;;;;;;4397951;32;64987;-60
2023/08/30 02:37:59;;;;;;;6.30;2.87;;;;;;;;;;4386670;32;67922;-61
2023/08/30 02:40:45;;;;;;;6.45;3.08;;;;;;;;;;4399509;32;59150;-61
2023/08/30 02:43:32;;;;;;;8.68;3.85;;;;;;;;;;4399108;32;69405;-60
2023/08/30 02:46:18;;;;;;;6.80;3.75;;;;;;;;;;4397719;32;68458;-61
2023/08/30 02:49:07;;;;;;;8.35;4.10;;;;;;;;;;4386731;32;68251;-60
2023/08/30 02:51:53;;;;;;;;;;;;;;;;;;4398152;32;60248;-60
2023/08/30 02:54:43;;;;;;;8.13;3.95;;;;;;;;;;4397607;32;69179;-60
2023/08/30 02:57:29;;;;;;;8.55;3.60;;;;;;;;;;4398741;32;68327;-59
2023/08/30 03:00:16;;;;;;;;;;;;;;;;;;4397404;32;68376;-60
2023/08/30 03:03:04;;;;;;;3.50;2.15;;;;;;;;;;4386947;32;71953;-59
2023/08/30 03:05:51;;;;;;;3.20;2.30;;;;;;;;;;4398763;32;65841;-60
2023/08/30 03:08:37;;;;;;;3.75;2.42;;;;;;;;;;4397392;32;67168;-60
2023/08/30 03:11:26;;;;;;;4.15;2.62;;;;;;;;;;4397853;32;60141;-60
2023/08/30 03:14:13;;;;;;;4.68;2.55;;;;;;;;;;4396850;32;69583;-60
2023/08/30 03:17:04;;;;;;;4.45;2.80;;;;;;;;;;4399917;32;66252;-60
2023/08/30 03:19:56;;;;;;;5.07;2.95;;;;;;;;;;4398662;32;68182;-60
2023/08/30 03:22:43;;;;;;;5.43;2.87;;;;;;;;;;4386401;32;59202;-60
2023/08/30 03:25:30;;;;;;;4.68;2.80;;;;;;;;;;4386571;32;69576;-61
2023/08/30 03:28:19;;;;;;;5.97;2.62;;;;;;;;;;4386802;32;68463;-60
2023/08/30 03:31:13;;;;;;;8.82;3.35;;;;;;;;;;4386577;32;67595;-60
2023/08/30 03:34:00;;;;;;;9.38;3.40;;;;;;;;;;4397014;32;71898;-60
2023/08/30 03:36:53;;;;;;;8.25;3.30;;;;;;;;;;4386221;32;66671;-60
2023/08/30 03:39:40;;;;;;;7.70;3.00;;;;;;;;;;4398234;32;69323;-61
2023/08/30 03:42:26;;;;;;;6.60;3.15;;;;;;;;;;4398265;32;67565;-60
2023/08/30 03:45:13;;;;;;;;;;;;;;;;;;4386527;32;71406;-59
2023/08/30 03:47:59;;;;;;;6.18;2.85;;;;;;;;;;4398554;32;66198;-61
2023/08/30 03:50:49;;;;;;;5.60;2.55;;;;;;;;;;4397093;32;68226;-61
2023/08/30 03:53:36;;;;;;;4.32;2.50;;;;;;;;;;4398447;32;59784;-60
2023/08/30 03:56:23;;;;;;;8.60;3.40;;;;;;;;;;4398072;32;69492;-60
2023/08/30 03:59:12;;;;;;;3.90;2.80;;;;;;;;;;4396372;32;69889;-59
2023/08/30 04:02:00;;;;;;;4.12;2.53;;;;;;;;;;4386068;32;66685;-61
2023/08/30 04:04:48;;;;;;;3.70;2.45;;;;;;;;;;4397403;32;58995;-59
2023/08/30 04:07:35;;;;;;;2.60;1.52;;;;;;;;;;4374900;32;71120;-61
2023/08/30 04:10:23;;;;;;;3.67;2.00;;;;;;;;;;4396953;32;68383;-61
2023/08/30 04:13:10;;;;;;;3.30;1.98;;;;;;;;;;4396526;32;67611;-61
2023/08/30 04:15:58;;;;;;;3.10;1.87;;;;;;;;;;4397766;32;70589;-60
2023/08/30 04:18:44;;;;;;;3.78;2.20;;;;;;;;;;4397847;32;65702;-60
2023/08/30 04:21:33;;;;;;;4.65;2.55;;;;;;;;;;4397948;32;67879;-60
2023/08/30 04:24:23;;;;;;;4.28;2.50;;;;;;;;;;4398266;32;60096;-60
2023/08/30 04:27:09;;;;;;;4.37;2.40;;;;;;;;;;4385785;32;70315;-59
2023/08/30 04:29:59;;;;;;;1.77;1.50;;;;;;;;;;4397991;32;66041;-60
2023/08/30 04:32:46;;;;;;;;;;;;;;;;;;4386352;32;66889;-60
2023/08/30 04:35:35;;;;;;;3.62;2.15;;;;;;;;;;4400194;32;58754;-61
2023/08/30 04:38:24;;;;;;;4.78;2.30;;;;;;;;;;4400475;32;70501;-60
2023/08/30 04:41:11;;;;;;;3.90;2.22;;;;;;;;;;4398681;32;69739;-60
2023/08/30 04:43:58;;;;;;;4.78;2.20;;;;;;;;;;4399252;32;66637;-60
2023/08/30 04:46:44;;;;;;;4.68;2.03;;;;;;;;;;4400213;32;71649;-59
2023/08/30 04:49:32;;;;;;;4.55;2.37;;;;;;;;;;4400500;32;64976;-60
2023/08/30 04:52:21;;;;;;;3.83;2.28;;;;;;;;;;4400740;32;68094;-61
2023/08/30 04:55:09;;;;;;;4.37;2.00;;;;;;;;;;4400303;32;67652;-60
2023/08/30 04:57:57;;;;;;;3.50;1.52;;;;;;;;;;4398843;32;71691;-61
2023/08/30 05:00:45;;;;;;;3.95;2.20;;;;;;;;;;4400444;32;64905;-60
2023/08/30 05:03:32;;;;;;;3.67;2.30;;;;;;;;;;4399050;32;66836;-61
2023/08/30 05:06:19;;;;;;;3.03;1.85;;;;;;;;;;4400326;32;60175;-62
2023/08/30 05:09:06;;;;;;;3.78;2.42;;;;;;;;;;4399687;32;69426;-60
2023/08/30 05:11:54;;;;;;;4.32;2.30;;;;;;;;;;4398762;32;68356;-60
2023/08/30 05:14:45;;;;;;;4.30;2.40;;;;;;;;;;4399921;32;67537;-62
2023/08/30 05:17:32;;;;;;;;;;;;;;;;;;4388218;32;71420;-61
2023/08/30 05:20:19;;;;;;;;;;;;;;;;;;4400636;32;70364;-60
2023/08/30 05:23:05;;;;;;;3.65;2.10;;;;;;;;;;4400722;32;69495;-60
2023/08/30 05:25:52;;;;;;;4.90;2.72;;;;;;;;;;4388388;32;68330;-61
2023/08/30 05:28:39;;;;;;;4.47;2.53;;;;;;;;;;4399960;32;71725;-60
2023/08/30 05:31:25;;;;;;;3.87;2.00;;;;;;;;;;4387933;32;65009;-61
2023/08/30 05:34:12;;;;;;;4.20;2.50;;;;;;;;;;4398231;32;68266;-60
2023/08/30 05:37:00;;;;;;;3.92;2.30;;;;;;;;;;4387731;32;61088;-60
2023/08/30 05:39:47;;;;;;;3.85;2.17;;;;;;;;;;4398859;32;70586;-60
2023/08/30 05:42:33;;;;;;;5.43;2.75;;;;;;;;;;4399956;32;68374;-61
2023/08/30 05:45:20;;;;;;;5.18;2.10;;;;;;;;;;4398174;32;67876;-60
2023/08/30 05:48:07;;;;;;;3.72;2.22;;;;;;;;;;4398626;32;59028;-60
2023/08/30 05:50:54;;;;;;;4.75;2.60;;;;;;;;;;4398564;32;70414;-61
2023/08/30 05:53:40;;;;;;;4.40;2.70;;;;;;;;;;4387319;32;68716;-61
2023/08/30 05:56:27;;;;;;;7.57;2.87;;;;;;;;;;4398211;32;67548;-61
2023/08/30 05:59:14;;;;;;;4.03;2.33;;;;;;;;;;4399450;32;70663;-61
2023/08/30 06:02:01;;;;;;;3.22;2.12;;;;;;;;;;4399670;32;66145;-60
2023/08/30 06:04:48;;;;;;;4.22;2.10;;;;;;;;;;4397787;32;68497;-60
2023/08/30 06:07:34;;;;;;;3.47;2.10;;;;;;;;;;4397820;32;68072;-60
2023/08/30 06:10:21;;;;;;;2.17;1.45;;;;;;;;;;4397999;32;71698;-60
2023/08/30 06:13:07;;;;;;;5.47;2.10;;;;;;;;;;4397699;32;65081;-61
2023/08/30 06:15:54;;;;;;;3.55;2.22;;;;;;;;;;4398148;32;68147;-58
2023/08/30 06:18:41;;;;;;;3.40;2.33;;;;;;;;;;4398604;32;59873;-60
2023/08/30 06:21:28;;;;;;;5.22;2.50;;;;;;;;;;4398106;32;70733;-61
2023/08/30 06:24:14;;;;;;;4.72;2.12;;;;;;;;;;4399196;32;68729;-60
2023/08/30 06:27:04;;;;;;;6.95;2.80;;;;;;;;;;4399299;32;67388;-60
2023/08/30 06:29:50;;;;;;;4.00;2.62;;;;;;;;;;4399278;32;71759;-60
2023/08/30 06:32:37;;;;;;;3.90;2.42;;;;;;;;;;4399002;32;69657;-61
2023/08/30 06:35:24;;;;;;;2.53;2.03;;;;;;;;;;4397767;32;69545;-61
2023/08/30 06:38:10;;;;;;;6.50;2.35;;;;;;;;;;4398973;32;67779;-59
2023/08/30 06:40:58;;;;;;;3.85;2.25;;;;;;;;;;4399078;32;71568;-60
2023/08/30 06:43:45;;;;;;;4.70;2.00;;;;;;;;;;4397842;32;66157;-61
2023/08/30 06:46:32;;;;;;;4.90;2.60;;;;;;;;;;4397653;32;68263;-60
2023/08/30 06:49:19;;;;;;;2.87;2.00;;;;;;;;;;4397905;32;59084;-60
2023/08/30 06:52:05;;;;;;;4.93;2.40;;;;;;;;;;4398947;32;70154;-60
2023/08/30 06:54:52;;;;;;;3.33;2.05;;;;;;;;;;4398804;32;69134;-61
2023/08/30 06:57:38;;;;;;;1.87;1.52;;;;;;;;;;4396915;32;68137;-59
2023/08/30 07:00:27;;;;;;;4.78;2.17;;;;;;;;;;4399187;32;60128;-60
2023/08/30 07:03:14;;;;;;;4.25;2.40;;;;;;;;;;4398754;32;69465;-59
2023/08/30 07:06:01;;;;;;;3.58;2.00;;;;;;;;;;4398683;32;69225;-61
2023/08/30 07:08:47;;;;;;;;;;;;;;;;;;4399088;32;67708;-59
2023/08/30 07:11:35;;;;;;;7.35;2.90;;;;;;;;;;4386002;32;72233;-60
2023/08/30 07:14:21;;;;;;;5.25;2.25;;;;;;;;;;4398339;32;64903;-61
2023/08/30 07:17:08;;;;;;;3.75;2.00;;;;;;;;;;4398639;32;68131;-60
2023/08/30 07:19:54;;;;;;;3.33;1.90;;;;;;;;;;4398794;32;59230;-61
2023/08/30 07:22:41;;;;;;;3.17;2.35;;;;;;;;;;4398590;32;70938;-60
2023/08/30 07:25:28;;;;;;;3.55;2.20;;;;;;;;;;4397436;32;65875;-60
2023/08/30 07:28:14;;;;;;;;;;;;;;;;;;4399880;32;67650;-60
2023/08/30 07:31:05;;;;;;;3.60;2.30;;;;;;;;;;4397702;32;58724;-60
2023/08/30 07:33:52;;;;;;;4.65;2.53;;;;;;;;;;4375904;32;70789;-60
2023/08/30 07:36:38;;;;;;;2.28;1.45;;;;;;;;;;4398364;32;68260;-61
2023/08/30 07:39:25;;;;;;;4.15;1.90;;;;;;;;;;4386073;32;66242;-60
2023/08/30 07:42:11;;;;;;;2.08;1.52;;;;;;;;;;4398338;32;71868;-60
2023/08/30 07:45:00;;;;;;;3.03;1.92;;;;;;;;;;4386939;32;65549;-60
2023/08/30 07:47:46;;;;;;;3.25;2.20;;;;;;;;;;4398225;32;68570;-60
2023/08/30 07:50:33;;;;;;;2.83;1.62;;;;;;;;;;4396945;32;68238;-59
2023/08/30 07:53:20;;;;;;;2.95;1.70;;;;;;;;;;4398525;32;70917;-60
2023/08/30 07:56:07;;;;;;;;;;;;;;;;;;4398477;32;66304;-60
2023/08/30 07:58:56;;;;;;;3.97;2.08;;;;;;;;;;4367163;32;67572;-60
2023/08/30 08:01:46;;;;;;;4.00;2.20;;;;;;;;;;4381633;32;59255;-58
2023/08/30 08:04:33;;;;;;;3.20;2.22;;;;;;;;;;4390239;32;71142;-59
2023/08/30 08:07:19;;;;;;;3.90;2.33;;;;;;;;;;4385248;32;68995;-59
2023/08/30 08:10:07;;;;;;;6.00;2.78;;;;;;;;;;4371977;32;68096;-60
2023/08/30 08:12:53;;;;;;;5.07;2.33;;;;;;;;;;4381235;32;60202;-60
2023/08/30 08:15:39;;;;;;;5.18;2.33;;;;;;;;;;4370313;32;70676;-59
2023/08/30 08:18:26;;;;;;;4.12;2.30;;;;;;;;;;4381538;32;68152;-59
2023/08/30 08:21:13;;;;;;;3.75;2.40;;;;;;;;;;4369983;32;67879;-59
2023/08/30 08:24:00;;;;;;;3.97;1.67;;;;;;;;;;4386917;32;70863;-59
2023/08/30 08:26:44;;;;;;;4.07;2.33;;;;;;;;;;3847355;37;43759;-60
2023/08/30 08:29:31;;;;;;;4.25;2.25;;;;;;;;;;4400768;32;60170;-59
2023/08/30 08:32:20;;;;;;;4.45;2.15;;;;;;;;;;4372447;32;70268;-60
2023/08/30 08:35:07;;;;;;;3.83;2.40;;;;;;;;;;4393907;32;69580;-60
2023/08/30 08:37:53;;;;;;;;;;;;;;;;;;4394460;32;67662;-59
2023/08/30 08:40:40;;;;;;;4.32;2.30;;;;;;;;;;4393813;32;72557;-60
2023/08/30 08:43:27;;;;;;;3.05;1.80;;;;;;;;;;4383513;32;64994;-58
2023/08/30 08:46:14;;;;;;;3.80;2.22;;;;;;;;;;4393985;32;67221;-59
2023/08/30 08:49:05;;;;;;;2.50;1.52;;;;;;;;;;4397244;32;60299;-60
2023/08/30 08:51:52;;;;;;;3.45;2.05;;;;;;;;;;4395241;32;71849;-60
2023/08/30 08:54:40;;;;;;;5.18;1.80;;;;;;;;;;4382339;32;66872;-60
2023/08/30 08:57:29;;;;;;;2.70;1.87;;;;;;;;;;4395216;32;66668;-61
2023/08/30 09:00:19;;;;;;;2.72;1.87;;;;;;;;;;4406324;32;60484;-60
2023/08/30 09:03:07;;;;;;;2.37;1.58;;;;;;;;;;4410460;32;69426;-59
2023/08/30 09:05:53;;;;;;;3.45;1.48;;;;;;;;;;4408820;32;69041;-60
2023/08/30 09:08:40;;;;;;;6.03;2.47;;;;;;;;;;4408337;32;67055;-59
2023/08/30 09:11:27;;;;;;;2.97;1.65;;;;;;;;;;4395249;32;70966;-61
2023/08/30 09:14:14;;;;;;;5.37;1.80;;;;;;;;;;4390024;32;66724;-62
2023/08/30 09:17:02;;;;;;;2.03;1.42;;;;;;;;;;4412568;32;68494;-62
2023/08/30 09:19:49;;;;;;;4.50;1.52;;;;;;;;;;4407298;32;67232;-62
2023/08/30 09:22:36;;;;;;;;;;;;;;;;;;4408506;32;72261;-61
2023/08/30 09:25:27;;;;;;;4.73;2.00;;;;;;;;;;4409650;32;65327;-62
2023/08/30 09:28:13;;;;;;;2.90;1.87;;;;;;;;;;4408953;32;67580;-61
2023/08/30 09:31:00;;;;;;;3.87;1.62;;;;;;;;;;4398155;32;59353;-59
2023/08/30 09:33:49;;;;;;;;;;;;;;;;;;4409017;32;69565;-61
2023/08/30 09:36:36;;;;;;;3.83;1.70;;;;;;;;;;4405025;32;69367;-61
2023/08/30 09:39:22;;;;;;;2.03;1.62;;;;;;;;;;4388149;32;67595;-63
2023/08/30 09:42:09;;;;;;;2.62;1.67;;;;;;;;;;4377914;32;59951;-63
2023/08/30 09:44:57;;;;;;;2.50;1.65;;;;;;;;;;4366115;32;71070;-62
2023/08/30 09:47:50;;;;;;;2.30;1.58;;;;;;;;;;4400481;32;69545;-63
2023/08/30 09:50:37;;;;;;;1.83;1.35;;;;;;;;;;4376193;32;67118;-63
2023/08/30 09:53:27;;;;;;;4.82;2.00;;;;;;;;;;4399918;32;71923;-62
2023/08/30 09:56:15;;;;;;;5.75;2.20;;;;;;;;;;4385789;32;64892;-63
2023/08/30 09:59:03;;;;;;;2.80;1.60;;;;;;;;;;4385937;32;68327;-62
2023/08/30 10:01:49;;;;;;;2.35;1.60;;;;;;;;;;4397271;32;60558;-63
2023/08/30 10:04:41;;;;;;;3.47;2.00;;;;;;;;;;4385936;32;70491;-62
2023/08/30 10:07:28;;;;;;;3.00;1.87;;;;;;;;;;4397375;32;65697;-61
2023/08/30 10:10:14;;;;;;;;;;;;;;;;;;4386984;32;67495;-62
2023/08/30 10:13:02;;;;;;;2.55;1.67;;;;;;;;;;4399888;32;59548;-62
2023/08/30 10:15:49;;;;;;;2.55;1.55;;;;;;;;;;4376233;32;70148;-65
2023/08/30 10:18:36;;;;;;;3.47;1.92;;;;;;;;;;4387769;32;69211;-63
2023/08/30 10:21:23;;;;;;;4.32;1.65;;;;;;;;;;4398521;32;66726;-62
2023/08/30 10:24:11;;;;;;;2.78;1.77;;;;;;;;;;4397980;32;71949;-63
2023/08/30 10:26:59;;;;;;;3.08;1.60;;;;;;;;;;4387491;32;66283;-64
2023/08/30 10:29:47;;;;;;;3.25;1.85;;;;;;;;;;4398501;32;67815;-62
2023/08/30 10:32:42;;;;;;;3.62;1.95;;;;;;;;;;4398273;32;67953;-63
2023/08/30 10:35:29;;;;;;;3.00;1.73;;;;;;;;;;4397906;32;71644;-63
2023/08/30 10:38:26;;;;;;;3.90;1.70;;;;;;;;;;4398026;32;64814;-63
2023/08/30 10:41:13;;;;;;;3.75;2.03;;;;;;;;;;4399294;32;68044;-63
2023/08/30 10:44:03;;;;;;;2.95;1.60;;;;;;;;;;4398020;32;60124;-64
2023/08/30 10:46:54;;;;;;;3.00;1.62;;;;;;;;;;4397648;32;70614;-63
2023/08/30 10:49:43;;;;;;;3.12;1.95;;;;;;;;;;4397630;32;68266;-63
2023/08/30 10:52:32;;;;;;;4.97;2.55;;;;;;;;;;4399400;32;67748;-64
2023/08/30 10:55:22;;;;;;;3.40;2.08;;;;;;;;;;4388328;32;59691;-64
2023/08/30 10:58:14;;;;;;;3.17;1.60;;;;;;;;;;4387266;32;69106;-63
2023/08/30 11:01:04;;;;;;;2.30;1.37;;;;;;;;;;4387417;32;69303;-64
2023/08/30 11:03:50;;;;;;;4.07;1.75;;;;;;;;;;4376490;32;67293;-63
2023/08/30 11:06:39;;;;;;;4.28;2.20;;;;;;;;;;4386919;32;71921;-63
2023/08/30 11:09:29;;;;;;;4.28;2.03;;;;;;;;;;4398064;32;67052;-63
2023/08/30 11:12:22;;;;;;;5.43;2.33;;;;;;;;;;4397413;32;66604;-61
2023/08/30 11:15:11;;;;;;;4.12;1.73;;;;;;;;;;4398068;32;59910;-64
2023/08/30 11:18:04;;;;;;;4.07;1.90;;;;;;;;;;4387134;32;70714;-64
2023/08/30 11:20:58;;;;;;;3.97;1.70;;;;;;;;;;4397377;32;65927;-64
2023/08/30 11:23:45;;;;;;;3.37;1.62;;;;;;;;;;4386442;32;67270;-65
2023/08/30 11:26:32;;;;;;;2.70;1.90;;;;;;;;;;4397320;32;60173;-63
2023/08/30 11:29:19;;;;;;;;;;;;;;;;;;4386332;32;71192;-63
2023/08/30 11:32:05;;;;;;;3.05;1.70;;;;;;;;;;4386647;32;69891;-63
2023/08/30 11:34:58;;;;;;;4.62;2.08;;;;;;;;;;4397410;32;67433;-63
2023/08/30 11:37:47;;;;;;;3.08;2.00;;;;;;;;;;4385568;32;71325;-63
2023/08/30 11:40:34;;;;;;;3.25;1.83;;;;;;;;;;4397573;32;65251;-64
2023/08/30 11:43:20;;;;;;;4.75;1.83;;;;;;;;;;4397328;32;67506;-64
2023/08/30 11:46:08;;;;;;;2.40;1.58;;;;;;;;;;4386264;32;67667;-64
2023/08/30 11:48:57;;;;;;;3.28;1.98;;;;;;;;;;4386195;32;72347;-63
2023/08/30 11:51:43;;;;;;;5.05;2.70;;;;;;;;;;4385644;32;66724;-63
2023/08/30 11:54:30;;;;;;;2.30;1.77;;;;;;;;;;4386191;32;67492;-64
2023/08/30 11:57:18;;;;;;;2.33;1.48;;;;;;;;;;4397563;32;59334;-63
2023/08/30 12:00:11;;;;;;;2.42;1.62;;;;;;;;;;4385948;32;70261;-64
2023/08/30 12:02:58;;;;;;;3.92;2.20;;;;;;;;;;4398398;32;68335;-63
2023/08/30 12:05:51;;;;;;;3.08;2.00;;;;;;;;;;4397065;32;66721;-64
2023/08/30 12:08:38;;;;;;;5.72;2.30;;;;;;;;;;4398621;32;71743;-64
2023/08/30 12:11:24;;;;;;;2.85;1.95;;;;;;;;;;4399222;32;70482;-63
2023/08/30 12:14:11;;;;;;;;;;;;;;;;;;4398293;32;69549;-63
2023/08/30 12:17:00;;;;;;;4.37;2.12;;;;;;;;;;4374767;32;68088;-62
2023/08/30 12:19:54;;;;;;;3.30;1.87;;;;;;;;;;4396553;32;70724;-63
2023/08/30 12:22:41;;;;;;;3.70;2.10;;;;;;;;;;4397012;32;65894;-63
2023/08/30 12:25:29;;;;;;;4.00;2.08;;;;;;;;;;4396355;32;66812;-63
2023/08/30 12:28:15;;;;;;;4.72;2.50;;;;;;;;;;4397285;32;60166;-63
2023/08/30 12:31:06;;;;;;;4.70;2.50;;;;;;;;;;4385215;32;71053;-63
2023/08/30 12:33:54;;;;;;;4.15;2.60;;;;;;;;;;4375755;32;69214;-63
2023/08/30 12:36:40;;;;;;;7.50;3.00;;;;;;;;;;4396992;32;67905;-63
2023/08/30 12:39:29;;;;;;;3.87;2.17;;;;;;;;;;4397529;32;59164;-62
2023/08/30 12:42:17;;;;;;;6.95;2.60;;;;;;;;;;4398249;32;70331;-63
2023/08/30 12:45:07;;;;;;;2.97;2.10;;;;;;;;;;4386552;32;69557;-62
2023/08/30 12:47:54;;;;;;;3.78;2.42;;;;;;;;;;4396248;32;67721;-62
2023/08/30 12:50:40;;;;;;;5.25;2.40;;;;;;;;;;4396544;32;71899;-63
2023/08/30 12:53:26;;;;;;;5.28;2.50;;;;;;;;;;4398137;32;64946;-63
2023/08/30 12:56:13;;;;;;;4.32;2.70;;;;;;;;;;4396824;32;67557;-64
2023/08/30 12:58:59;;;;;;;;;;;;;;;;;;4386122;32;60291;-63
2023/08/30 13:01:46;;;;;;;3.85;2.40;;;;;;;;;;4396749;32;70857;-64
2023/08/30 13:04:32;;;;;;;3.50;2.28;;;;;;;;;;4386093;32;65867;-64
2023/08/30 13:07:19;;;;;;;4.03;2.45;;;;;;;;;;4385742;32;67801;-62
2023/08/30 13:10:06;;;;;;;3.42;1.85;;;;;;;;;;4396350;32;60227;-62
2023/08/30 13:12:53;;;;;;;7.15;2.53;;;;;;;;;;4397870;32;68796;-63
2023/08/30 13:15:41;;;;;;;4.57;2.53;;;;;;;;;;4399111;32;69970;-63
2023/08/30 13:18:27;;;;;;;7.30;2.92;;;;;;;;;;4400396;32;66559;-64
2023/08/30 13:21:13;;;;;;;;;;;;;;;;;;4399671;32;70806;-64
2023/08/30 13:24:00;;;;;;;5.47;2.42;;;;;;;;;;4388349;32;70333;-63
2023/08/30 13:26:46;;;;;;;4.68;2.83;;;;;;;;;;4400104;32;69149;-63
2023/08/30 13:29:33;;;;;;;4.78;3.00;;;;;;;;;;4401275;32;67464;-63
2023/08/30 13:32:19;;;;;;;5.22;3.08;;;;;;;;;;4400181;32;71533;-64
2023/08/30 13:35:06;;;;;;;6.78;3.25;;;;;;;;;;4388150;32;65376;-63
2023/08/30 13:37:53;;;;;;;5.87;2.65;;;;;;;;;;4388115;32;67885;-63
2023/08/30 13:40:39;;;;;;;4.93;2.80;;;;;;;;;;4398735;32;59328;-63
2023/08/30 13:43:26;;;;;;;5.70;3.08;;;;;;;;;;4376525;32;71314;-63
2023/08/30 13:46:11;;;;;;;7.22;3.50;;;;;;;;;;3847393;37;43832;-63
2023/08/30 13:48:58;;;;;;;7.78;2.75;;;;;;;;;;4412137;32;59294;-62
2023/08/30 13:51:47;;;;;;;7.20;2.90;;;;;;;;;;4410481;32;70408;-63
2023/08/30 13:54:33;;;;;;;4.45;2.33;;;;;;;;;;4409627;32;68477;-65
2023/08/30 13:57:20;;;;;;;4.87;2.10;;;;;;;;;;4409925;32;66903;-63
2023/08/30 14:00:12;;;;;;;4.87;2.40;;;;;;;;;;4411449;32;71689;-64
2023/08/30 14:02:59;;;;;;;6.03;2.90;;;;;;;;;;4399118;32;66138;-63
2023/08/30 14:05:45;;;;;;;3.90;2.33;;;;;;;;;;4411220;32;67517;-64
2023/08/30 14:08:33;;;;;;;5.30;2.35;;;;;;;;;;4393610;32;60847;-64
2023/08/30 14:11:19;;;;;;;5.75;2.92;;;;;;;;;;4393269;32;71666;-63
2023/08/30 14:14:05;;;;;;;6.28;2.95;;;;;;;;;;4395474;32;66263;-64
2023/08/30 14:16:52;;;;;;;5.53;2.50;;;;;;;;;;4383102;32;68205;-62
2023/08/30 14:19:39;;;;;;;4.00;2.47;;;;;;;;;;4394378;32;61506;-62
2023/08/30 14:22:25;;;;;;;5.05;2.75;;;;;;;;;;4404636;32;70373;-62
2023/08/30 14:25:12;;;;;;;5.07;2.80;;;;;;;;;;4383123;32;69198;-63
2023/08/30 14:27:59;;;;;;;3.87;1.80;;;;;;;;;;4393951;32;68169;-62
2023/08/30 14:30:48;;;;;;;3.85;1.60;;;;;;;;;;4393737;32;71665;-63
2023/08/30 14:33:37;;;;;;;3.62;2.17;;;;;;;;;;4404849;32;65916;-63
2023/08/30 14:36:26;;;;;;;4.22;2.25;;;;;;;;;;4404431;32;69345;-64
2023/08/30 14:39:13;;;;;;;4.85;2.08;;;;;;;;;;4394933;32;67562;-63
2023/08/30 14:42:00;;;;;;;4.65;2.50;;;;;;;;;;4404670;32;71965;-63
2023/08/30 14:44:52;;;;;;;5.28;2.25;;;;;;;;;;4393455;32;64849;-62
2023/08/30 14:47:39;;;;;;;4.95;2.40;;;;;;;;;;4393629;32;66955;-61
2023/08/30 14:50:26;;;;;;;2.92;1.92;;;;;;;;;;4393234;32;59888;-64
2023/08/30 14:53:12;;;;;;;3.65;2.00;;;;;;;;;;4404186;32;69481;-63
2023/08/30 14:55:58;;;;;;;3.50;2.10;;;;;;;;;;4391075;32;68269;-62
2023/08/30 14:58:49;;;;;;;;;;;;;;;;;;4394358;32;67852;-63
2023/08/30 15:01:35;;;;;;;4.85;2.22;;;;;;;;;;4384930;32;59904;-63
2023/08/30 15:04:22;;;;;;;4.55;2.15;;;;;;;;;;4383086;32;70600;-63
2023/08/30 15:07:08;;;;;;;3.53;2.17;;;;;;;;;;4395074;32;69300;-63
2023/08/30 15:09:55;;;;;;;4.53;2.47;;;;;;;;;;4385264;32;66754;-64
2023/08/30 15:12:41;;;;;;;5.07;2.47;;;;;;;;;;4385889;32;70999;-63
2023/08/30 15:15:31;;;;;;;4.72;2.10;;;;;;;;;;4386476;32;65966;-63
2023/08/30 15:18:17;;;;;;;3.67;2.25;;;;;;;;;;4385842;32;67239;-61
2023/08/30 15:21:04;;;;;;;6.22;2.50;;;;;;;;;;4384949;32;60261;-64
2023/08/30 15:23:52;;;;;;;5.50;3.00;;;;;;;;;;4383188;32;70719;-63
2023/08/30 15:26:39;;;;;;;6.70;3.22;;;;;;;;;;4393910;32;64585;-63
2023/08/30 15:29:26;;;;;;;;;;;;;;;;;;4385109;32;68549;-62
2023/08/30 15:32:12;;;;;;;7.12;3.20;;;;;;;;;;4384740;32;59879;-63
2023/08/30 15:34:59;;;;;;;6.93;3.87;;;;;;;;;;4393732;32;70266;-64
2023/08/30 15:37:45;;;;;;;8.18;4.43;;;;;;;;;;4384197;32;69700;-64
2023/08/30 15:40:33;;;;;;;10.52;4.72;;;;;;;;;;4383120;32;67755;-64
2023/08/30 15:43:19;;;;;;;12.65;5.65;;;;;;;;;;4372202;32;71936;-63
2023/08/30 15:46:10;;;;;;;9.57;5.05;;;;;;;;;;4382550;32;65455;-64
2023/08/30 15:48:57;;;;;;;10.43;5.60;;;;;;;;;;4382681;32;68385;-62
2023/08/30 15:51:43;;;;;;;12.40;5.00;;;;;;;;;;4382904;32;66794;-63
2023/08/30 15:54:29;;;;;;;10.48;5.32;;;;;;;;;;4382695;32;72119;-63
2023/08/30 15:57:15;;;;;;;11.35;5.45;;;;;;;;;;4374076;32;67191;-63
2023/08/30 16:00:03;;;;;;;;;;;;;;;;;;4385854;32;66881;-64
2023/08/30 16:02:52;;;;;;;14.30;6.28;;;;;;;;;;4384205;32;59775;-63
2023/08/30 16:05:42;;;;;;;12.07;5.93;;;;;;;;;;4382411;32;69630;-63
2023/08/30 16:08:29;;;;;;;12.73;6.28;;;;;;;;;;4392212;32;69224;-64
2023/08/30 16:11:15;;;;;;;;;;;;;;;;;;4383004;32;68219;-64
2023/08/30 16:14:02;;;;;;;10.95;5.70;;;;;;;;;;4384389;32;58429;-64
2023/08/30 16:16:49;;;;;;;10.80;5.03;;;;;;;;;;4382342;32;70612;-63
2023/08/30 16:19:35;;;;;;;10.03;5.17;;;;;;;;;;4383706;32;68527;-64
2023/08/30 16:22:22;;;;;;;10.93;5.18;;;;;;;;;;4382258;32;67676;-62
2023/08/30 16:25:09;;;;;;;;;;;;;;;;;;4383940;32;70747;-63
2023/08/30 16:27:55;;;;;;;10.77;6.22;;;;;;;;;;4382751;32;65885;-63
2023/08/30 16:30:42;;;;;;;;;;;;;;;;;;4384674;32;67878;-63
2023/08/30 16:33:28;;;;;;;12.55;6.35;;;;;;;;;;4372241;32;60419;-63
2023/08/30 16:36:15;;;;;;;9.52;5.32;;;;;;;;;;4371182;32;70254;-63
2023/08/30 16:39:03;;;;;;;12.27;5.35;;;;;;;;;;4382466;32;65017;-63
2023/08/30 16:41:50;;;;;;;;;;;;;;;;;;4382767;32;67385;-63
2023/08/30 16:44:37;;;;;;;10.85;5.15;;;;;;;;;;4360206;32;59899;-63
2023/08/30 16:47:23;;;;;;;15.38;5.85;;;;;;;;;;4382409;32;70522;-63
2023/08/30 16:50:11;;;;;;;10.50;6.00;;;;;;;;;;4371507;32;69170;-63
2023/08/30 16:52:58;;;;;;;13.32;5.93;;;;;;;;;;4385407;32;67867;-63